KHDE/HDE METAR and TAF weather

Enter ICAO airport designator
Station Type Date Time Source
KHDE METAR 2021/08/01 17:35 UTC NOAA

KHDE 011735Z AUTO 36003KT 10SM CLR 25/14 A3031 RMK AO2 T02500143


Station Type Date Time Source
KHDE Decoded METAR 2021/08/01 17:35 UTC NOAA

Brewster Field Airport, NE, United States (KHDE) 40-27N 099-20W
Aug 01, 2021 - 01:35 PM EDT / 2021.08.01 1735 UTC
Wind: from the N (360 degrees) at 3 MPH (3 KT):0
Visibility: 10 mile(s):0
Sky conditions: clear
Temperature: 77.0 F (25.0 C)
Dew Point: 57.7 F (14.3 C)
Relative Humidity: 51%
Pressure (altimeter): 30.31 in. Hg (1026 hPa)
ob: KHDE 011735Z AUTO 36003KT 10SM CLR 25/14 A3031 RMK AO2 T02500143
cycle: 17

Station Type Date Time Source
KHDE TAF UTC NOAA

Error!

Example: see airport list